createdAt,value
2022-10-01T00:01:01.301Z,99880.25
2022-10-01T00:03:28.898Z,99874.84
2022-10-01T00:06:09.032Z,99847.00
2022-10-01T00:08:37.273Z,99858.66
2022-10-01T00:11:24.153Z,99867.63
2022-10-01T00:13:51.695Z,99860.38
2022-10-01T00:16:21.711Z,99868.38
2022-10-01T00:18:49.294Z,99863.09
2022-10-01T00:21:20.339Z,99861.25
2022-10-01T00:23:47.292Z,99868.38
2022-10-01T00:26:20.929Z,99862.97
2022-10-01T00:28:49.203Z,99854.63
2022-10-01T00:31:16.456Z,99840.28
2022-10-01T00:33:42.989Z,99841.25
2022-10-01T00:36:10.842Z,99829.47
2022-10-01T00:38:50.937Z,99828.38
2022-10-01T00:41:18.680Z,99825.44
2022-10-01T00:43:49.875Z,99834.38
2022-10-01T00:46:25.137Z,99828.00
2022-10-01T00:49:17.708Z,99823.34
2022-10-01T00:51:57.228Z,99821.63
2022-10-01T00:54:32.163Z,99820.41
2022-10-01T00:57:00.660Z,99806.78
2022-10-01T00:59:29.075Z,99810.22
2022-10-01T01:01:55.576Z,99813.66
2022-10-01T01:04:22.026Z,99805.53
2022-10-01T01:06:57.685Z,99801.00
2022-10-01T01:09:30.060Z,99796.22
2022-10-01T01:12:18.160Z,99796.22
2022-10-01T01:15:03.274Z,99794.25
2022-10-01T01:17:40.363Z,99793.63
2022-10-01T01:20:09.631Z,99794.13
2022-10-01T01:22:41.014Z,99774.34
2022-10-01T01:25:20.246Z,99780.75
2022-10-01T01:27:56.592Z,99788.84
2022-10-01T01:30:22.998Z,99784.06
2022-10-01T01:32:57.277Z,99782.31
2022-10-01T01:35:32.179Z,99766.25
2022-10-01T01:38:08.465Z,99777.03
2022-10-01T01:40:37.771Z,99774.22
2022-10-01T01:43:09.427Z,99775.06
2022-10-01T01:45:39.987Z,99770.56
2022-10-01T01:48:09.896Z,99772.25
2022-10-01T01:50:43.645Z,99754.19
2022-10-01T01:53:11.325Z,99740.84
2022-10-01T01:55:39.124Z,99749.81
2022-10-01T01:58:05.880Z,99739.00
2022-10-01T02:00:32.253Z,99740.69
2022-10-01T02:02:59.119Z,99728.06
2022-10-01T02:05:38.893Z,99730.78
2022-10-01T02:08:36.888Z,99725.22
2022-10-01T02:11:15.827Z,99716.03
2022-10-01T02:14:01.154Z,99704.09
2022-10-01T02:16:35.025Z,99697.59
2022-10-01T02:19:10.541Z,99701.88
2022-10-01T02:21:44.284Z,99696.00
2022-10-01T02:25:02.003Z,99687.97
2022-10-01T02:27:40.401Z,99679.47
2022-10-01T02:30:09.670Z,99685.34
2022-10-01T02:32:39.487Z,99674.88
2022-10-01T02:35:09.594Z,99668.09
2022-10-01T02:37:38.705Z,99690.75
2022-10-01T02:40:09.747Z,99688.34
2022-10-01T02:42:37.425Z,99685.53
2022-10-01T02:45:05.490Z,99687.69
2022-10-01T02:47:47.262Z,99691.00
2022-10-01T02:50:14.857Z,99699.84
2022-10-01T02:53:13.578Z,99710.22
2022-10-01T02:55:42.172Z,99716.19
2022-10-01T02:58:08.788Z,99723.00
2022-10-01T03:00:35.679Z,99715.31
2022-10-01T03:03:02.090Z,99723.72
2022-10-01T03:05:28.462Z,99722.16
2022-10-01T03:07:54.834Z,99722.16
2022-10-01T03:10:21.214Z,99727.72
2022-10-01T03:12:47.581Z,99735.72
2022-10-01T03:15:16.444Z,99735.97
2022-10-01T03:17:42.970Z,99730.88
2022-10-01T03:20:10.821Z,99728.56
2022-10-01T03:22:37.268Z,99732.88
2022-10-01T03:25:04.316Z,99742.84
2022-10-01T03:27:31.009Z,99743.13
2022-10-01T03:29:57.381Z,99749.69
2022-10-01T03:32:23.750Z,99753.13
2022-10-01T03:34:50.163Z,99754.97
2022-10-01T03:37:16.596Z,99755.25
2022-10-01T03:39:43.071Z,99755.97
2022-10-01T03:42:09.426Z,99767.81
2022-10-01T03:44:35.841Z,99767.25
2022-10-01T03:47:02.200Z,99765.41
2022-10-01T03:49:28.927Z,99765.66
2022-10-01T03:51:55.329Z,99765.97
2022-10-01T03:54:21.713Z,99774.09
2022-10-01T03:56:48.824Z,99783.09
2022-10-01T03:59:15.191Z,99787.06
2022-10-01T04:01:41.656Z,99791.34
2022-10-01T04:04:08.127Z,99795.63
2022-10-01T04:06:34.505Z,99796.19
2022-10-01T04:09:01.027Z,99805.44
2022-10-01T04:11:27.878Z,99803.56
2022-10-01T04:13:54.267Z,99805.59
2022-10-01T04:16:20.731Z,99811.88
2022-10-01T04:18:47.247Z,99813.91
2022-10-01T04:21:15.240Z,99821.59
2022-10-01T04:23:41.999Z,99828.44
2022-10-01T04:26:09.062Z,99829.63
2022-10-01T04:28:35.499Z,99828.16
2022-10-01T04:31:20.479Z,99841.72
2022-10-01T04:33:47.070Z,99828.75
2022-10-01T04:36:13.893Z,99839.91
2022-10-01T04:38:40.357Z,99844.31
2022-10-01T04:41:07.165Z,99849.03
2022-10-01T04:43:33.518Z,99852.03
2022-10-01T04:45:59.894Z,99859.84
2022-10-01T04:48:26.337Z,99862.31
2022-10-01T04:50:52.721Z,99866.00
2022-10-01T04:53:19.158Z,99874.25
2022-10-01T04:55:46.579Z,99870.38
2022-10-01T04:58:13.088Z,99875.50
2022-10-01T05:00:39.578Z,99876.66
2022-10-01T05:03:05.993Z,99882.38
2022-10-01T05:05:34.792Z,99890.31
2022-10-01T05:08:01.907Z,99888.03
2022-10-01T05:10:28.343Z,99889.47
2022-10-01T05:12:54.784Z,99891.03
2022-10-01T05:15:21.225Z,99901.47
2022-10-01T05:17:47.936Z,99903.38
2022-10-01T05:20:20.516Z,99898.78
2022-10-01T05:22:47.667Z,99898.53
2022-10-01T05:25:14.556Z,99900.13
2022-10-01T05:27:40.950Z,99910.28
2022-10-01T05:30:12.025Z,99915.59
2022-10-01T05:32:38.831Z,99922.56
2022-10-01T05:35:07.154Z,99925.44
2022-10-01T05:37:34.234Z,99928.75
2022-10-01T05:40:01.636Z,99932.03
2022-10-01T05:42:28.049Z,99943.31
2022-10-01T05:44:54.413Z,99943.28
2022-10-01T05:47:21.450Z,99951.41
2022-10-01T05:49:47.836Z,99944.88
2022-10-01T05:52:15.604Z,99956.75
2022-10-01T05:54:42.020Z,99950.13
2022-10-01T05:57:09.388Z,99962.25
2022-10-01T05:59:36.080Z,99957.97
2022-10-01T06:02:04.165Z,99963.34
2022-10-01T06:04:30.730Z,99963.34
2022-10-01T06:06:57.150Z,99964.06
2022-10-01T06:09:23.619Z,99972.78
2022-10-01T06:11:50.170Z,99967.88
2022-10-01T06:14:17.268Z,99972.34
2022-10-01T06:16:43.730Z,99976.69
2022-10-01T06:19:10.482Z,99979.53
2022-10-01T06:21:37.242Z,99986.25
2022-10-01T06:24:04.182Z,100006.72
2022-10-01T06:26:31.172Z,100014.19
2022-10-01T06:28:57.687Z,100008.22
2022-10-01T06:31:25.037Z,100007.53
2022-10-01T06:33:51.502Z,100012.44
2022-10-01T06:36:17.921Z,100006.59
2022-10-01T06:38:44.994Z,100007.34
2022-10-01T06:41:12.041Z,100010.03
2022-10-01T06:43:38.916Z,100010.97
2022-10-01T06:46:05.922Z,100012.47
2022-10-01T06:48:33.329Z,100017.84
2022-10-01T06:50:59.837Z,100019.13
2022-10-01T06:53:27.713Z,100032.00
2022-10-01T06:55:54.395Z,100026.53
2022-10-01T06:58:22.922Z,100030.28
2022-10-01T07:00:49.993Z,100022.75
2022-10-01T07:03:21.517Z,100030.06
2022-10-01T07:05:50.348Z,100032.06
2022-10-01T07:08:17.647Z,100032.47
2022-10-01T07:10:45.494Z,100028.94
2022-10-01T07:13:17.672Z,100038.47
2022-10-01T07:15:45.101Z,100038.34
2022-10-01T07:18:12.038Z,100039.09
2022-10-01T07:20:42.159Z,100044.50
2022-10-01T07:23:12.141Z,100046.81
2022-10-01T07:25:39.978Z,100047.66
2022-10-01T07:28:08.364Z,100052.22
2022-10-01T07:30:35.838Z,100056.44
2022-10-01T07:33:02.234Z,100046.69
2022-10-01T07:35:29.565Z,100054.94
2022-10-01T07:37:55.925Z,100060.38
2022-10-01T07:40:22.672Z,100051.69
2022-10-01T07:42:54.591Z,100046.19
2022-10-01T07:45:25.265Z,100047.94
2022-10-01T07:47:56.645Z,100058.53
2022-10-01T07:50:23.743Z,100059.50
2022-10-01T07:52:54.294Z,100068.56
2022-10-01T07:55:21.182Z,100077.41
2022-10-01T07:57:52.229Z,100081.84
2022-10-01T08:00:19.553Z,100084.00
2022-10-01T08:02:50.721Z,100083.13
2022-10-01T08:05:22.474Z,100088.13
2022-10-01T08:07:49.964Z,100093.69
2022-10-01T08:10:18.540Z,100096.41
2022-10-01T08:12:45.812Z,100099.69
2022-10-01T08:15:15.219Z,100100.28
2022-10-01T08:17:42.152Z,100098.72
2022-10-01T08:20:11.779Z,100096.28
2022-10-01T08:22:41.841Z,100109.31
2022-10-01T08:25:09.368Z,100111.72
2022-10-01T08:27:36.069Z,100110.44
2022-10-01T08:30:02.752Z,100113.69
2022-10-01T08:32:30.107Z,100121.16
2022-10-01T08:34:58.933Z,100116.59
2022-10-01T08:37:27.138Z,100130.41
2022-10-01T08:39:54.643Z,100125.34
2022-10-01T08:42:53.910Z,100120.72
2022-10-01T08:45:25.894Z,100132.31
2022-10-01T08:48:02.176Z,100135.75
2022-10-01T08:50:52.890Z,100155.78
2022-10-01T08:53:48.185Z,100143.19
2022-10-01T08:56:30.630Z,100148.91
2022-10-01T08:58:59.571Z,100156.34
2022-10-01T09:01:29.958Z,100171.81
2022-10-01T09:03:56.875Z,100173.53
2022-10-01T09:06:25.503Z,100185.66
2022-10-01T09:09:03.164Z,100184.50
2022-10-01T09:11:47.603Z,100187.34
2022-10-01T09:14:30.193Z,100192.59
2022-10-01T09:17:24.378Z,100197.00
2022-10-01T09:19:56.881Z,100209.31
2022-10-01T09:22:28.261Z,100211.03
2022-10-01T09:25:25.347Z,100203.63
2022-10-01T09:28:00.513Z,100195.59
2022-10-01T09:30:29.711Z,100198.91
2022-10-01T09:33:02.344Z,100204.78
2022-10-01T09:35:44.193Z,100210.22
2022-10-01T09:38:22.485Z,100233.19
2022-10-01T09:40:59.064Z,100229.59
2022-10-01T09:43:38.092Z,100218.94
2022-10-01T09:46:15.326Z,100244.88
2022-10-01T09:48:55.780Z,100247.25
2022-10-01T09:51:41.288Z,100252.03
2022-10-01T09:54:46.427Z,100252.59
2022-10-01T09:57:20.727Z,100259.66
2022-10-01T10:00:01.474Z,100253.97
2022-10-01T10:02:32.904Z,100257.38
2022-10-01T10:05:07.269Z,100260.69
2022-10-01T10:07:35.114Z,100271.00
2022-10-01T10:10:10.560Z,100273.03
2022-10-01T10:12:36.996Z,100268.88
2022-10-01T10:15:09.901Z,100281.16
2022-10-01T10:17:37.976Z,100284.97
2022-10-01T10:20:11.844Z,100288.22
2022-10-01T10:22:38.492Z,100296.47
2022-10-01T10:25:19.829Z,100302.34
2022-10-01T10:27:55.573Z,100318.72
2022-10-01T10:30:24.581Z,100314.41
2022-10-01T10:32:52.527Z,100314.69
2022-10-01T10:35:26.068Z,100330.72
2022-10-01T10:37:54.748Z,100317.22
2022-10-01T10:40:29.470Z,100334.28
2022-10-01T10:42:58.618Z,100348.22
2022-10-01T10:45:33.109Z,100351.09
2022-10-01T10:48:02.628Z,100354.28
2022-10-01T10:50:36.546Z,100358.16
2022-10-01T10:54:00.610Z,100358.91
2022-10-01T10:56:27.059Z,100360.16
2022-10-01T10:58:53.985Z,100371.63
2022-10-01T11:01:29.400Z,100368.38
2022-10-01T11:03:58.461Z,100372.88
2022-10-01T11:06:25.754Z,100380.81
2022-10-01T11:09:10.567Z,100375.66
2022-10-01T11:11:45.692Z,100387.13
2022-10-01T11:14:35.283Z,100384.88
2022-10-01T11:17:23.263Z,100393.28
2022-10-01T11:19:57.070Z,100399.97
2022-10-01T11:22:47.701Z,100394.19
2022-10-01T11:25:33.645Z,100410.81
2022-10-01T11:28:26.754Z,100414.13
2022-10-01T11:31:01.278Z,100420.94
2022-10-01T11:33:46.335Z,100425.03
2022-10-01T11:36:55.256Z,100433.81
2022-10-01T11:39:25.158Z,100422.47
2022-10-01T11:42:06.688Z,100438.84
2022-10-01T11:44:39.679Z,100445.81
2022-10-01T11:47:19.573Z,100459.13
2022-10-01T11:50:07.538Z,100451.09
2022-10-01T11:53:11.707Z,100448.06
2022-10-01T11:56:11.946Z,100462.81
2022-10-01T11:58:57.229Z,100460.41
2022-10-01T12:01:23.621Z,100481.13
2022-10-01T12:03:52.635Z,100471.03
2022-10-01T12:06:33.000Z,100475.28
2022-10-01T12:09:09.366Z,100473.66
2022-10-01T12:12:08.380Z,100477.03
2022-10-01T12:15:01.702Z,100488.59
2022-10-01T12:17:44.110Z,100500.06
2022-10-01T12:20:24.918Z,100497.00
2022-10-01T12:22:53.740Z,100492.56
2022-10-01T12:25:25.608Z,100503.53
2022-10-01T12:28:21.402Z,100502.75
2022-10-01T12:30:58.090Z,100503.72
2022-10-01T12:33:42.610Z,100513.63
2022-10-01T12:36:25.105Z,100510.47
2022-10-01T12:39:19.631Z,100512.41
2022-10-01T12:41:50.381Z,100514.94
2022-10-01T12:44:49.143Z,100534.53
2022-10-01T12:47:24.383Z,100531.56
2022-10-01T12:50:04.431Z,100541.81
2022-10-01T12:52:39.473Z,100534.31
2022-10-01T12:55:19.393Z,100543.03
2022-10-01T12:57:58.895Z,100530.47
2022-10-01T13:00:27.274Z,100551.75
2022-10-01T13:03:15.428Z,100554.75
2022-10-01T13:06:00.247Z,100558.75
2022-10-01T13:08:43.394Z,100553.72
2022-10-01T13:11:12.799Z,100556.94
2022-10-01T13:13:40.126Z,100568.94
2022-10-01T13:16:48.532Z,100592.56
2022-10-01T13:19:40.108Z,100586.78
2022-10-01T13:22:45.116Z,100585.75
2022-10-01T13:25:41.993Z,100588.66
2022-10-01T13:28:13.071Z,100603.25
2022-10-01T13:31:00.438Z,100602.13
2022-10-01T13:33:29.676Z,100594.81
2022-10-01T13:35:59.442Z,100606.97
2022-10-01T13:38:40.673Z,100617.25
2022-10-01T13:41:29.658Z,100612.25
2022-10-01T13:44:03.602Z,100610.31
2022-10-01T13:46:33.118Z,100615.13
2022-10-01T13:49:07.408Z,100618.53
2022-10-01T13:51:36.267Z,100615.97
2022-10-01T13:54:06.859Z,100624.44
2022-10-01T13:56:37.237Z,100633.00
2022-10-01T13:59:20.636Z,100635.31
2022-10-01T14:01:47.064Z,100655.84
2022-10-01T14:04:19.359Z,100658.47
2022-10-01T14:06:53.577Z,100663.59
2022-10-01T14:09:25.924Z,100660.84
2022-10-01T14:12:19.793Z,100665.13
2022-10-01T14:15:11.146Z,100672.38
2022-10-01T14:17:37.846Z,100667.56
2022-10-01T14:20:05.529Z,100678.19
2022-10-01T14:22:54.841Z,100685.00
2022-10-01T14:25:44.117Z,100678.91
2022-10-01T14:28:17.531Z,100688.25
2022-10-01T14:31:12.891Z,100685.75
2022-10-01T14:34:14.619Z,100677.00
2022-10-01T14:36:52.216Z,100689.16
2022-10-01T14:39:29.369Z,100688.31
2022-10-01T14:41:57.965Z,100694.13
2022-10-01T14:44:27.761Z,100703.91
2022-10-01T14:46:56.488Z,100702.63
2022-10-01T14:49:28.479Z,100708.91
2022-10-01T14:52:00.527Z,100714.34
2022-10-01T14:54:28.371Z,100715.88
2022-10-01T14:56:55.545Z,100710.31
2022-10-01T14:59:42.199Z,100716.66
2022-10-01T15:02:18.969Z,100717.97
2022-10-01T15:04:50.564Z,100721.91
2022-10-01T15:07:18.352Z,100724.97
2022-10-01T15:09:46.010Z,100737.50
2022-10-01T15:12:15.037Z,100737.88
2022-10-01T15:14:43.558Z,100726.94
2022-10-01T15:17:18.839Z,100733.28
2022-10-01T15:19:52.091Z,100728.88
2022-10-01T15:22:23.056Z,100726.81
2022-10-01T15:24:51.821Z,100728.19
2022-10-01T15:27:20.787Z,100723.91
2022-10-01T15:29:56.101Z,100719.13
2022-10-01T15:32:25.170Z,100731.88
2022-10-01T15:35:01.042Z,100729.28
2022-10-01T15:37:33.120Z,100733.84
2022-10-01T15:40:00.997Z,100733.53
2022-10-01T15:42:33.573Z,100740.22
2022-10-01T15:45:09.143Z,100737.38
2022-10-01T15:47:52.149Z,100740.94
2022-10-01T15:50:21.935Z,100746.66
2022-10-01T15:53:01.845Z,100751.13
2022-10-01T15:55:50.618Z,100749.38
2022-10-01T15:58:21.589Z,100761.66
2022-10-01T16:00:48.632Z,100761.00
2022-10-01T16:03:25.388Z,100768.09
2022-10-01T16:05:56.790Z,100772.69
2022-10-01T16:08:34.450Z,100768.38
2022-10-01T16:11:12.776Z,100776.75
2022-10-01T16:13:41.778Z,100784.19
2022-10-01T16:16:11.020Z,100777.41
2022-10-01T16:18:37.522Z,100776.78
2022-10-01T16:21:06.038Z,100790.50
2022-10-01T16:23:36.243Z,100799.19
2022-10-01T16:26:05.745Z,100798.56
2022-10-01T16:28:35.052Z,100807.50
2022-10-01T16:31:03.945Z,100801.91
2022-10-01T16:33:30.475Z,100790.31
2022-10-01T16:36:09.454Z,100800.94
2022-10-01T16:38:35.868Z,100801.28
2022-10-01T16:41:03.967Z,100805.75
2022-10-01T16:43:31.157Z,100808.63
2022-10-01T16:45:59.061Z,100816.06
2022-10-01T16:48:25.466Z,100820.72
2022-10-01T16:50:53.692Z,100824.56
2022-10-01T16:53:20.237Z,100828.53
2022-10-01T16:55:47.221Z,100827.44
2022-10-01T16:58:13.749Z,100825.94
2022-10-01T17:00:40.528Z,100836.44
2022-10-01T17:03:12.371Z,100849.41
2022-10-01T17:05:39.195Z,100845.69
2022-10-01T17:08:11.190Z,100859.75
2022-10-01T17:10:40.825Z,100857.28
2022-10-01T17:13:07.526Z,100854.06
2022-10-01T17:15:34.041Z,100862.97
2022-10-01T17:18:01.105Z,100863.97
2022-10-01T17:20:29.522Z,100860.84
2022-10-01T17:22:57.720Z,100861.09
2022-10-01T17:25:30.836Z,100869.47
2022-10-01T17:27:58.219Z,100860.69
2022-10-01T17:30:24.665Z,100867.88
2022-10-01T17:32:51.975Z,100881.00
2022-10-01T17:35:18.368Z,100879.13
2022-10-01T17:37:44.782Z,100883.13
2022-10-01T17:40:11.214Z,100892.75
2022-10-01T17:42:37.767Z,100896.69
2022-10-01T17:45:08.270Z,100902.72
2022-10-01T17:47:35.119Z,100901.72
2022-10-01T17:50:02.838Z,100906.75
2022-10-01T17:52:29.864Z,100907.72
2022-10-01T17:54:56.315Z,100909.56
2022-10-01T17:57:22.778Z,100916.59
2022-10-01T17:59:49.152Z,100916.13
2022-10-01T18:02:39.935Z,100913.34
2022-10-01T18:05:04.069Z,100917.00
2022-10-01T18:07:30.458Z,100925.59
2022-10-01T18:09:56.793Z,100930.66
2022-10-01T18:12:23.174Z,100929.06
2022-10-01T18:14:49.786Z,100932.50
2022-10-01T18:17:16.252Z,100944.13
2022-10-01T18:19:57.858Z,100937.75
2022-10-01T18:22:24.403Z,100940.94
2022-10-01T18:24:50.838Z,100945.16
2022-10-01T18:27:17.547Z,100950.38
2022-10-01T18:29:43.946Z,100949.69
2022-10-01T18:32:19.214Z,100955.50
2022-10-01T18:35:00.461Z,100969.56
2022-10-01T18:37:46.389Z,100964.13
2022-10-01T18:40:17.558Z,100962.03
2022-10-01T18:43:02.116Z,100967.91
2022-10-01T18:45:36.948Z,100963.47
2022-10-01T18:48:37.078Z,100970.66
2022-10-01T18:51:18.446Z,100979.94
2022-10-01T18:53:50.342Z,100979.34
2022-10-01T18:56:37.111Z,100993.66
2022-10-01T18:59:14.760Z,100978.63
2022-10-01T19:02:22.140Z,100987.28
2022-10-01T19:05:10.508Z,100982.09
2022-10-01T19:08:04.318Z,100983.81
2022-10-01T19:10:58.329Z,100993.31
2022-10-01T19:13:33.233Z,100993.56
2022-10-01T19:16:26.598Z,100995.31
2022-10-01T19:19:17.579Z,100999.91
2022-10-01T19:22:37.887Z,100999.66
2022-10-01T19:25:28.504Z,101010.13
2022-10-01T19:28:23.501Z,101016.78
2022-10-01T19:31:27.446Z,100998.91
2022-10-01T19:34:04.804Z,101011.47
2022-10-01T19:36:37.294Z,101012.94
2022-10-01T19:39:10.751Z,101011.97
2022-10-01T19:41:43.010Z,101008.75
2022-10-01T19:44:16.861Z,101014.06
2022-10-01T19:46:45.784Z,101020.88
2022-10-01T19:49:25.350Z,101025.31
2022-10-01T19:51:57.302Z,101025.16
2022-10-01T19:54:30.546Z,101032.06
2022-10-01T19:57:09.721Z,101028.28
2022-10-01T19:59:36.093Z,101033.69
2022-10-01T20:02:27.976Z,101041.50
2022-10-01T20:05:03.588Z,101046.81
2022-10-01T20:07:45.534Z,101043.88
2022-10-01T20:10:23.639Z,101050.53
2022-10-01T20:13:07.012Z,101051.00
2022-10-01T20:15:52.598Z,101052.63
2022-10-01T20:18:58.576Z,101052.78
2022-10-01T20:21:54.175Z,101058.72
2022-10-01T20:24:35.563Z,101062.31
2022-10-01T20:27:27.779Z,101059.09
2022-10-01T20:30:04.854Z,101063.91
2022-10-01T20:32:40.717Z,101060.97
2022-10-01T20:35:12.001Z,101064.63
2022-10-01T20:38:00.333Z,101067.84
2022-10-01T20:40:32.877Z,101066.22
2022-10-01T20:43:05.740Z,101067.13
2022-10-01T20:45:35.340Z,101071.66
2022-10-01T20:48:10.212Z,101065.00
2022-10-01T20:50:46.200Z,101075.28
2022-10-01T20:53:30.891Z,101077.47
2022-10-01T20:56:11.420Z,101074.25
2022-10-01T20:58:44.395Z,101079.56
2022-10-01T21:01:20.312Z,101080.16
2022-10-01T21:03:51.710Z,101081.34
2022-10-01T21:06:33.282Z,101085.78
2022-10-01T21:09:29.447Z,101084.03
2022-10-01T21:12:06.079Z,101083.50
2022-10-01T21:14:55.575Z,101081.84
2022-10-01T21:17:30.994Z,101072.94
2022-10-01T21:20:20.208Z,101081.00
2022-10-01T21:23:12.287Z,101070.75
2022-10-01T21:26:15.163Z,101070.28
2022-10-01T21:29:05.150Z,101069.13
2022-10-01T21:31:37.770Z,101069.53
2022-10-01T21:34:33.626Z,101065.09
2022-10-01T21:37:30.060Z,101075.38
2022-10-01T21:40:22.046Z,101080.34
2022-10-01T21:43:05.869Z,101077.75
2022-10-01T21:45:54.002Z,101080.22
2022-10-01T21:49:01.806Z,101084.31
2022-10-01T21:52:15.496Z,101091.59
2022-10-01T21:54:57.125Z,101090.84
2022-10-01T21:57:45.578Z,101100.84
2022-10-01T22:00:21.653Z,101090.84
2022-10-01T22:03:03.360Z,101098.72
2022-10-01T22:05:44.626Z,101097.75
2022-10-01T22:08:21.780Z,101109.66
2022-10-01T22:11:02.472Z,101105.91
2022-10-01T22:13:36.705Z,101112.59
2022-10-01T22:16:09.504Z,101115.31
2022-10-01T22:18:49.970Z,101117.75
2022-10-01T22:21:32.504Z,101131.59
2022-10-01T22:24:07.324Z,101126.44
2022-10-01T22:26:38.121Z,101126.59
2022-10-01T22:29:10.404Z,101135.09
2022-10-01T22:31:39.422Z,101133.47
2022-10-01T22:34:14.513Z,101134.13
2022-10-01T22:36:48.892Z,101145.97
2022-10-01T22:39:25.403Z,101141.63
2022-10-01T22:42:16.110Z,101143.38
2022-10-01T22:44:43.023Z,101141.16
2022-10-01T22:47:42.646Z,101147.50
2022-10-01T22:50:47.486Z,101142.47
2022-10-01T22:53:42.951Z,101146.75
2022-10-01T22:56:17.651Z,101139.59
2022-10-01T22:58:59.239Z,101147.13
2022-10-01T23:01:57.317Z,101150.72
2022-10-01T23:04:32.195Z,101141.94
2022-10-01T23:07:15.728Z,101151.69
2022-10-01T23:10:20.299Z,101151.22
2022-10-01T23:13:05.811Z,101158.91
2022-10-01T23:15:46.393Z,101148.75
2022-10-01T23:18:35.155Z,101153.81
2022-10-01T23:21:29.149Z,101156.19
2022-10-01T23:24:18.000Z,101162.69
2022-10-01T23:26:58.261Z,101170.97
2022-10-01T23:29:48.905Z,101174.44
2022-10-01T23:32:27.566Z,101172.97
2022-10-01T23:35:13.156Z,101174.66
2022-10-01T23:38:04.940Z,101180.06
2022-10-01T23:40:36.516Z,101185.09
2022-10-01T23:43:21.900Z,101180.81
2022-10-01T23:45:54.897Z,101184.75
2022-10-01T23:48:27.939Z,101187.34
2022-10-01T23:51:02.721Z,101183.25
2022-10-01T23:54:07.040Z,101204.59
2022-10-01T23:56:50.077Z,101198.06
2022-10-01T23:59:33.411Z,101192.63
